KMCF/MCF METAR and TAF weather

Enter ICAO airport designator
Station Type Date Time Source
KMCF METAR 2019/12/05 21:56 UTC NOAA

KMCF 052156Z AUTO 00000KT 10SM CLR 18/06 A3011 RMK AO2 SLP199 T01830062 FZRANO $


Station Type Date Time Source
KMCF Decoded METAR 2019/12/05 21:56 UTC NOAA

Macdill Air Force Base, Fl., FL, United States (KMCF) 27-51N 082-30W 4M
Dec 05, 2019 - 04:56 PM EST / 2019.12.05 2156 UTC
Wind: Calm:0
Visibility: 10 mile(s):0
Sky conditions: clear
Temperature: 64.9 F (18.3 C)
Dew Point: 43.2 F (6.2 C)
Relative Humidity: 45%
Pressure (altimeter): 30.11 in. Hg (1019 hPa)
ob: KMCF 052156Z AUTO 00000KT 10SM CLR 18/06 A3011 RMK AO2 SLP199 T01830062 FZRANO
cycle: 22

Station Type Date Time Source
KMCF TAF 2019/12/05 17:03 UTC NOAA

TAF KMCF 051700Z 0517/0623 VRB06KT 9999 FEW230 QNH3008INS TX20/0620Z TN14/0611Z

Example: see airport list